Flight Track Log - Related Links

Times and Time Zones

All times are in EDT time to prevent confusion due to time zone crossing. See the UAL33 flight status page for this flight to view local times or setup timezone preferences in your user account.

Time Position Orientation Groundspeed Altitude Reporting Facility
EDT Latitude Longitude Course Direction KTS MPH feet Rate Location/Type
Wed 08:33:19 AM 35.7400 140.3920 150° Southeast 173 199 1,200  Level FlightAware ADS-B
Wed 08:33:43 AM 35.7220 140.4060 148° Southeast 179 206 2,200 2,182 Climbing FlightAware ADS-B
Wed 08:34:03 AM 35.7070 140.4170 149° Southeast 185 213 2,800 1,950 Climbing FlightAware ADS-B
Wed 08:34:23 AM 35.6930 140.4270 150° Southeast 187 215 3,500 1,650 Climbing FlightAware ADS-B
Wed 08:34:43 AM 35.6760 140.4390 150° Southeast 210 242 3,900 1,050 Climbing FlightAware ADS-B
Wed 08:35:03 AM 35.6590 140.4520 148° Southeast 238 274 4,200 1,395 Climbing FlightAware ADS-B
Wed 08:35:26 AM 35.6360 140.4680 151° Southeast 256 295 4,900 2,045 Climbing FlightAware ADS-B
Wed 08:35:47 AM 35.6130 140.4850 149° Southeast 269 310 5,700 2,341 Climbing FlightAware ADS-B
Wed 08:36:07 AM 35.5920 140.5000 150° Southeast 276 318 6,500 2,200 Climbing FlightAware ADS-B
Wed 08:36:17 AM 35.5800 140.5080 152° Southeast 281 323 6,800 1,286 Climbing FlightAware ADS-B
Wed 08:36:35 AM 35.5610 140.5250 144° Southeast 286 329 7,100 692 Climbing FlightAware ADS-B
Wed 08:36:43 AM 35.5550 140.5360 124° Southeast 290 334 7,100  Level FlightAware ADS-B
Wed 08:36:47 AM 35.5530 140.5420 112° Southeast 292 336 7,100  Level FlightAware ADS-B
Wed 08:36:53 AM 35.5510 140.5520 104° East 292 336 7,100  Level FlightAware ADS-B
Wed 08:37:17 AM 35.5470 140.5920 97° East 287 330 7,100  Level FlightAware ADS-B
Wed 08:37:41 AM 35.5430 140.6300 97° East 290 334 7,100  Level FlightAware ADS-B
Wed 08:38:02 AM 35.5400 140.6630 96° East 291 335 7,100 158 Level FlightAware ADS-B
Wed 08:38:19 AM 35.5360 140.6930 99° East 294 338 7,200 1,692 Climbing FlightAware ADS-B
Wed 08:38:41 AM 35.5320 140.7290 98° East 293 337 8,200 2,714 Climbing FlightAware ADS-B
Wed 08:39:01 AM 35.5290 140.7620 96° East 295 339 9,100 2,464 Climbing FlightAware ADS-B
Wed 08:39:37 AM 35.5220 140.8240 98° East 306 352 10,500 1,703 Climbing FlightAware ADS-B
Wed 08:40:15 AM 35.5150 140.8920 97° East 344 396 11,200 1,500 Climbing FlightAware ADS-B
Wed 08:40:45 AM 35.5080 140.9540 98° East 362 417 12,200 1,869 Climbing FlightAware ADS-B
Wed 08:41:16 AM 35.5020 141.0130 97° East 374 430 13,100 1,886 Climbing FlightAware ADS-B
Wed 08:41:55 AM 35.4900 141.0980 100° East 387 445 14,400 2,160 Climbing FlightAware ADS-B
Wed 08:42:31 AM 35.4690 141.1720 109° East 390 449 15,800 2,167 Climbing FlightAware ADS-B
Wed 08:43:07 AM 35.4470 141.2480 110° East 399 459 17,000 1,437 Climbing FlightAware ADS-B
Wed 08:43:42 AM 35.4240 141.3210 111° Southeast 424 488 17,500 857 Climbing FlightAware ADS-B
Wed 08:44:17 AM 35.3990 141.4020 111° Southeast 446 513 18,000 846 Climbing FlightAware ADS-B
Wed 08:45:00 AM 35.3780 141.5160 103° East 479 551 18,600 833 Climbing FlightAware ADS-B
Wed 08:45:29 AM 35.3980 141.5860 71° East 490 564 19,000 947 Climbing FlightAware ADS-B
Wed 08:45:57 AM 35.4380 141.6460 51° Northeast 492 566 19,500 1,440 Climbing FlightAware ADS-B
Wed 08:46:44 AM 35.4990 141.7530 55° Northeast 504 580 20,800 1,671 Climbing FlightAware ADS-B
Wed 08:47:16 AM 35.5360 141.8340 61° Northeast 507 583 21,700 1,562 Climbing FlightAware ADS-B
Wed 08:47:57 AM 35.5840 141.9370 60° Northeast 427 491 22,700 1,317 Climbing FlightAware ADS-B
Wed 08:48:38 AM 35.6340 142.0470 61° Northeast 516 594 23,500 1,185 Climbing FlightAware ADS-B
Wed 08:49:18 AM 35.6830 142.1560 61° Northeast 527 606 24,300 1,059 Climbing FlightAware ADS-B
Wed 08:50:03 AM 35.7360 142.2730 61° Northeast 534 615 25,000 894 Climbing FlightAware ADS-B
Wed 08:50:52 AM 35.7930 142.3970 60° Northeast 544 626 25,700 847 Climbing FlightAware ADS-B
Wed 08:51:28 AM 35.8370 142.4970 61° Northeast 551 634 26,200 947 Climbing FlightAware ADS-B
Wed 08:52:08 AM 35.8880 142.6090 61° Northeast 556 640 26,900 1,280 Climbing FlightAware ADS-B
Wed 08:52:43 AM 35.9300 142.7020 61° Northeast 551 634 27,800 1,714 Climbing FlightAware ADS-B
Wed 08:53:18 AM 35.9760 142.8060 61° Northeast 543 625 28,900 1,520 Climbing FlightAware ADS-B
Wed 08:53:58 AM 36.0180 142.9000 61° Northeast 541 623 29,700 1,200 Climbing FlightAware ADS-B
Wed 08:54:38 AM 36.0710 143.0210 62° Northeast 542 624 30,500 818 Climbing FlightAware ADS-B
Wed 08:55:26 AM 36.1240 143.1390 61° Northeast 542 624 30,900 1,159 Climbing FlightAware ADS-B
Wed 08:56:06 AM 36.1710 143.2460 61° Northeast 538 619 32,200 1,667 Climbing FlightAware ADS-B
Wed 08:56:38 AM 36.2100 143.3350 61° Northeast 536 617 32,900 1,254 Climbing FlightAware ADS-B
Wed 08:57:13 AM 36.2560 143.4400 61° Northeast 530 610 33,600 1,200 Climbing FlightAware ADS-B
Wed 08:57:43 AM 36.2910 143.5210 62° Northeast 530 610 34,200 943 Climbing FlightAware ADS-B
Wed 08:58:23 AM 36.3350 143.6210 61° Northeast 532 612 34,700 439 Climbing FlightAware ADS-B
Wed 08:59:05 AM 36.3770 143.7190 62° Northeast 532 612 34,800 1,040 Climbing FlightAware ADS-B
Wed 08:59:38 AM 36.4260 143.8320 62° Northeast 530 610 36,000 986 Climbing FlightAware ADS-B
Wed 09:00:18 AM 36.4720 143.9380 62° Northeast 527 606 36,000  Level FlightAware ADS-B
Wed 09:00:58 AM 36.5190 144.0480 62° Northeast 527 606 36,000 80 Level FlightAware ADS-B
Wed 09:01:33 AM 36.5590 144.1410 62° Northeast 530 610 36,100 560 Climbing FlightAware ADS-B
Wed 09:02:13 AM 36.6050 144.2470 62° Northeast 528 608 36,700 635 Climbing FlightAware ADS-B
Wed 09:02:58 AM 36.6550 144.3650 62° Northeast 525 604 37,000 225 Climbing FlightAware ADS-B
Wed 09:03:33 AM 36.6980 144.4650 62° Northeast 526 605 37,000  Level FlightAware ADS-B
Wed 09:04:18 AM 36.7460 144.5790 62° Northeast 529 609 37,000  Level FlightAware ADS-B
Wed 09:04:53 AM 36.7850 144.6720 62° Northeast 529 609 37,000  Level FlightAware ADS-B
Wed 09:05:35 AM 36.8360 144.7940 62° Northeast 531 611 37,000  Level FlightAware ADS-B
Wed 09:06:10 AM 36.8760 144.8900 62° Northeast 532 612 37,000  Level FlightAware ADS-B
Wed 09:06:48 AM 36.9140 144.9780 62° Northeast 532 612 37,000  Level FlightAware ADS-B
Wed 09:07:35 AM 36.9740 145.1230 63° Northeast 535 616 37,000  Level FlightAware ADS-B
Wed 09:08:20 AM 37.0230 145.2410 62° Northeast 535 616 37,000  Level FlightAware ADS-B
Wed 09:08:55 AM 37.0650 145.3420 62° Northeast 535 616 37,000  Level FlightAware ADS-B
Wed 09:09:40 AM 37.1140 145.4630 63° Northeast 536 617 37,000  Level FlightAware ADS-B
Wed 09:10:20 AM 37.1600 145.5750 63° Northeast 534 615 37,000  Level FlightAware ADS-B
Wed 09:10:50 AM 37.1980 145.6540 59° Northeast 534 615 37,000  Level FlightAware ADS-B
Wed 09:11:25 AM 37.2480 145.7240 48° Northeast 517 595 37,000  Level FlightAware ADS-B
Wed 09:12:00 AM 37.3120 145.7990 43° Northeast 516 594 37,000  Level FlightAware ADS-B
Wed 09:12:35 AM 37.3730 145.8700 43° Northeast 519 597 37,000  Level FlightAware ADS-B
Wed 09:13:21 AM 37.4530 145.9640 43° Northeast 521 600 37,000  Level FlightAware ADS-B
Wed 09:14:15 AM 37.5450 146.0710 43° Northeast 522 601 37,000  Level FlightAware ADS-B
Wed 09:14:56 AM 37.6190 146.1580 43° Northeast 526 605 37,000  Level FlightAware ADS-B
Wed 09:15:32 AM 37.6740 146.2220 43° Northeast 526 605 37,000  Level FlightAware ADS-B
Wed 09:16:08 AM 37.7280 146.2870 44° Northeast 526 605 37,000  Level FlightAware ADS-B
Wed 09:16:44 AM 37.7830 146.3510 43° Northeast 526 605 37,000  Level FlightAware ADS-B
Wed 09:17:20 AM 37.8370 146.4150 43° Northeast 526 605 37,000  Level FlightAware ADS-B
Wed 09:18:08 AM 37.9100 146.5010 43° Northeast 526 605 37,000  Level FlightAware ADS-B
Wed 09:18:46 AM 37.9670 146.5690 43° Northeast 526 605 37,000  Level FlightAware ADS-B
Wed 09:19:23 AM 38.0230 146.6350 43° Northeast 526 605 37,000  Level FlightAware ADS-B
Wed 09:19:59 AM 38.0780 146.7000 43° Northeast 526 605 37,000  Level FlightAware ADS-B
Wed 09:20:35 AM 38.1320 146.7640 43° Northeast 526 605 37,000  Level FlightAware ADS-B
Wed 09:21:11 AM 38.1870 146.8290 43° Northeast 526 605 37,000  Level FlightAware ADS-B
Wed 09:21:47 AM 38.2410 146.8940 43° Northeast 526 605 37,000  Level FlightAware ADS-B
Wed 09:22:23 AM 38.2950 146.9580 43° Northeast 526 605 37,000  Level FlightAware ADS-B
Wed 09:22:59 AM 38.3500 147.0230 43° Northeast 526 605 37,000  Level FlightAware ADS-B
Wed 09:23:37 AM 38.4070 147.0910 43° Northeast 526 605 37,000  Level FlightAware ADS-B
Wed 09:24:14 AM 38.4630 147.1580 43° Northeast 526 605 37,000  Level FlightAware ADS-B
Wed 09:26:00 AM 38.5842 147.4275 60° Northeast  Level Estimated
Wed 09:27:00 AM 38.6525 147.5804 60° Northeast  Level Estimated
Wed 09:28:00 AM 38.7207 147.7337 60° Northeast  Level Estimated
Wed 09:29:00 AM 38.7886 147.8872 60° Northeast  Level Estimated
Wed 09:30:00 AM 38.8563 148.0410 60° Northeast  Level Estimated
Wed 09:31:00 AM 38.9239 148.1952 61° Northeast  Level Estimated
Wed 09:32:00 AM 38.9912 148.3496 61° Northeast  Level Estimated
Wed 09:33:00 AM 39.0583 148.5043 61° Northeast  Level Estimated
Wed 09:34:00 AM 39.1252 148.6593 61° Northeast  Level Estimated
Wed 09:35:00 AM 39.1919 148.8146 61° Northeast  Level Estimated
Wed 09:36:00 AM 39.2584 148.9702 61° Northeast  Level Estimated
Wed 09:37:00 AM 39.3247 149.1261 61° Northeast  Level Estimated
Wed 09:38:00 AM 39.3908 149.2822 61° Northeast  Level Estimated
Wed 09:39:00 AM 39.4567 149.4387 61° Northeast  Level Estimated
Wed 09:40:00 AM 39.5224 149.5955 61° Northeast  Level Estimated
Wed 09:41:00 AM 39.5878 149.7525 62° Northeast  Level Estimated
Wed 09:42:00 AM 39.6531 149.9099 62° Northeast  Level Estimated
Wed 09:43:00 AM 39.7181 150.0676 62° Northeast  Level Estimated
Wed 09:44:00 AM 39.7830 150.2255 62° Northeast  Level Estimated
Wed 09:45:00 AM 39.8476 150.3838 62° Northeast  Level Estimated
Wed 09:46:00 AM 39.9120 150.5423 62° Northeast  Level Estimated
Wed 09:47:00 AM 39.9761 150.7012 62° Northeast  Level Estimated
Wed 09:48:00 AM 40.0401 150.8603 62° Northeast  Level Estimated
Wed 09:49:00 AM 40.1038 151.0198 62° Northeast  Level Estimated
Wed 09:50:00 AM 40.1674 151.1795 62° Northeast  Level Estimated
Wed 09:51:00 AM 40.2307 151.3396 63° Northeast  Level Estimated
Wed 09:52:00 AM 40.2937 151.4999 63° Northeast  Level Estimated
Wed 09:53:00 AM 40.3566 151.6606 63° Northeast  Level Estimated
Wed 09:54:00 AM 40.4192 151.8215 63° Northeast  Level Estimated
Wed 09:55:00 AM 40.4817 151.9828 63° Northeast  Level Estimated
Wed 09:56:00 AM 40.5438 152.1443 63° Northeast  Level Estimated
Wed 09:57:00 AM 40.6058 152.3061 63° Northeast  Level Estimated
Wed 09:58:00 AM 40.6675 152.4683 63° Northeast  Level Estimated
Wed 09:59:00 AM 40.7290 152.6307 63° Northeast  Level Estimated
Wed 10:00:00 AM 40.7903 152.7935 64° Northeast  Level Estimated
Wed 10:01:00 AM 40.8514 152.9565 64° Northeast  Level Estimated
Wed 10:02:00 AM 40.9122 153.1198 64° Northeast  Level Estimated
Wed 10:03:00 AM 40.9728 153.2835 64° Northeast  Level Estimated
Wed 10:04:00 AM 41.0331 153.4474 64° Northeast  Level Estimated
Wed 10:05:00 AM 41.0933 153.6116 64° Northeast  Level Estimated
Wed 10:06:00 AM 41.1532 153.7762 64° Northeast  Level Estimated
Wed 10:07:00 AM 41.2128 153.9410 64° Northeast  Level Estimated
Wed 10:08:00 AM 41.2723 154.1062 64° Northeast  Level Estimated
Wed 10:09:00 AM 41.3314 154.2716 64° Northeast  Level Estimated
Wed 10:10:00 AM 41.3904 154.4373 65° Northeast  Level Estimated
Wed 10:11:00 AM 41.4491 154.6034 65° Northeast  Level Estimated
Wed 10:12:00 AM 41.5076 154.7697 65° Northeast  Level Estimated
Wed 10:13:00 AM 41.5658 154.9364 65° Northeast  Level Estimated
Wed 10:14:00 AM 41.6238 155.1033 65° Northeast  Level Estimated
Wed 10:15:00 AM 41.6815 155.2706 65° Northeast  Level Estimated
Wed 10:16:00 AM 41.7391 155.4381 65° Northeast  Level Estimated
Wed 10:17:00 AM 41.7963 155.6059 65° Northeast  Level Estimated
Wed 10:18:00 AM 41.8533 155.7741 65° Northeast  Level Estimated
Wed 10:19:00 AM 41.9101 155.9425 66° East  Level Estimated
Wed 10:20:00 AM 41.9666 156.1113 66° East  Level Estimated
Wed 10:21:00 AM 42.0229 156.2803 66° East  Level Estimated
Wed 10:22:00 AM 42.0789 156.4496 66° East  Level Estimated
Wed 10:23:00 AM 42.1347 156.6193 66° East  Level Estimated
Wed 10:24:00 AM 42.1903 156.7892 66° East  Level Estimated
Wed 10:25:00 AM 42.2455 156.9594 66° East  Level Estimated
Wed 10:26:00 AM 42.3006 157.1300 66° East  Level Estimated
Wed 10:27:00 AM 42.3553 157.3008 66° East  Level Estimated
Wed 10:28:00 AM 42.4099 157.4719 67° East  Level Estimated
Wed 10:29:00 AM 42.4641 157.6434 67° East  Level Estimated
Wed 10:30:00 AM 42.5181 157.8151 67° East  Level Estimated
Wed 10:31:00 AM 42.5719 157.9871 67° East  Level Estimated
Wed 10:32:00 AM 42.6254 158.1594 67° East  Level Estimated
Wed 10:33:00 AM 42.6786 158.3320 67° East  Level Estimated
Wed 10:34:00 AM 42.7316 158.5049 67° East  Level Estimated
Wed 10:35:00 AM 42.7843 158.6781 67° East  Level Estimated
Wed 10:36:00 AM 42.8367 158.8516 68° East  Level Estimated
Wed 10:37:00 AM 42.8889 159.0254 68° East  Level Estimated
Wed 10:38:00 AM 42.9408 159.1995 68° East  Level Estimated
Wed 10:39:00 AM 42.9925 159.3738 68° East  Level Estimated
Wed 10:40:00 AM 43.0439 159.5485 68° East  Level Estimated
Wed 10:41:00 AM 43.0956 159.7253 68° East  Level Estimated
Wed 10:42:00 AM 43.1470 159.9024 68° East  Level Estimated
Wed 10:43:00 AM 43.1981 160.0798 68° East  Level Estimated
Wed 10:44:00 AM 43.2490 160.2575 68° East  Level Estimated
Wed 10:45:00 AM 43.2995 160.4355 69° East  Level Estimated
Wed 10:46:00 AM 43.3498 160.6138 69° East  Level Estimated
Wed 10:47:00 AM 43.3998 160.7923 69° East  Level Estimated
Wed 10:48:00 AM 43.4496 160.9712 69° East  Level Estimated
Wed 10:49:00 AM 43.4990 161.1504 69° East  Level Estimated
Wed 10:50:00 AM 43.5482 161.3298 69° East  Level Estimated
Wed 10:51:00 AM 43.5971 161.5096 69° East  Level Estimated
Wed 10:52:00 AM 43.6457 161.6896 69° East  Level Estimated
Wed 10:52:25 AM 47.5500 161.3333 55° Northeast 580 667 37,000  Level Anchorage Center
Wed 10:53:00 AM 43.6941 161.8700 70° East  Level Estimated
Wed 10:54:00 AM 43.7421 162.0506 70° East  Level Estimated
Wed 10:55:00 AM 43.7899 162.2315 70° East  Level Estimated
Wed 10:56:00 AM 43.8374 162.4127 70° East  Level Estimated
Wed 10:57:00 AM 43.8846 162.5942 70° East  Level Estimated
Wed 10:57:34 AM 48.0833 162.4833 55° Northeast 571 657 37,000  Level Anchorage Center
Wed 10:58:00 AM 48.1633 162.6395 56° Northeast 580 667 37,000  Level FlightAware Transoceanic
Wed 10:59:00 AM 48.2497 162.8286 56° Northeast 580 667 37,000  Level FlightAware Transoceanic
Wed 11:00:00 AM 48.3358 163.0184 56° Northeast 580 667 37,000  Level FlightAware Transoceanic
Wed 11:01:00 AM 48.4215 163.2088 56° Northeast 580 667 37,000  Level FlightAware Transoceanic
Wed 11:02:00 AM 48.5070 163.3999 56° Northeast 580 667 37,000  Level FlightAware Transoceanic
Wed 11:03:00 AM 48.5976 163.6198 56° Northeast 571 657 37,000  Level FlightAware Transoceanic
Wed 11:04:00 AM 48.6823 163.8114 56° Northeast 571 657 37,000  Level FlightAware Transoceanic
Wed 11:05:00 AM 48.7666 164.0037 56° Northeast 571 657 37,000  Level FlightAware Transoceanic
Wed 11:06:00 AM 48.8506 164.1967 57° Northeast 571 657 37,000  Level FlightAware Transoceanic
Wed 11:07:00 AM 48.9342 164.3903 57° Northeast 571 657 37,000  Level FlightAware Transoceanic
Wed 11:07:10 AM 48.9167 164.3333 57° Northeast 554 638 37,000  Level Anchorage Center
Wed 11:08:00 AM 49.0176 164.5845 57° Northeast 571 657 37,000  Level FlightAware Transoceanic
Wed 11:09:00 AM 49.1006 164.7794 57° Northeast 571 657 37,000  Level FlightAware Transoceanic
Wed 11:10:00 AM 49.1832 164.9749 57° Northeast 571 657 37,000  Level FlightAware Transoceanic
Wed 11:11:00 AM 49.2656 165.1711 57° Northeast 571 657 37,000  Level FlightAware Transoceanic
Wed 11:12:00 AM 49.3476 165.3680 57° Northeast 571 657 37,000  Level FlightAware Transoceanic
Wed 11:13:00 AM 49.4154 165.5181 58° Northeast 554 638 37,000  Level FlightAware Transoceanic
Wed 11:14:00 AM 49.4973 165.7178 58° Northeast 554 638 37,000  Level FlightAware Transoceanic
Wed 11:15:00 AM 49.5789 165.9183 58° Northeast 554 638 37,000  Level FlightAware Transoceanic
Wed 11:16:00 AM 49.6602 166.1194 58° Northeast 554 638 37,000  Level FlightAware Transoceanic
Wed 11:16:45 AM 49.7000 166.2167 58° Northeast 548 631 37,000  Level Anchorage Center
Wed 11:17:00 AM 49.7411 166.3212 58° Northeast 554 638 37,000  Level FlightAware Transoceanic
Wed 11:17:01 AM 49.7000 166.2167 58° Northeast 544 626 37,000  Level Anchorage Center
Wed 11:18:00 AM 49.8216 166.5237 58° Northeast 554 638 37,000  Level FlightAware Transoceanic
Wed 11:19:00 AM 49.9018 166.7268 59° Northeast 554 638 37,000  Level FlightAware Transoceanic
Wed 11:20:00 AM 49.9816 166.9306 59° Northeast 554 638 37,000  Level FlightAware Transoceanic
Wed 11:21:00 AM 50.0611 167.1351 59° Northeast 554 638 37,000  Level FlightAware Transoceanic
Wed 11:22:00 AM 50.1402 167.3403 59° Northeast 554 638 37,000  Level FlightAware Transoceanic
Wed 11:23:00 AM 50.1894 167.4673 59° Northeast 544 626 37,000  Level FlightAware Transoceanic
Wed 11:24:00 AM 50.2697 167.6782 59° Northeast 544 626 37,000  Level FlightAware Transoceanic
Wed 11:25:00 AM 50.3495 167.8898 60° Northeast 544 626 37,000  Level FlightAware Transoceanic
Wed 11:26:00 AM 50.4290 168.1022 60° Northeast 544 626 37,000  Level FlightAware Transoceanic
Wed 11:27:00 AM 50.5081 168.3152 60° Northeast 544 626 37,000 1,600 Level FlightAware Transoceanic
Wed 11:27:15 AM 50.4500 168.1333 60° Northeast 532 612 39,000  Climbing Anchorage Center
Wed 11:28:00 AM 50.5868 168.5290 60° Northeast 544 626 37,000 -1,143 Descending FlightAware Transoceanic
Wed 11:29:00 AM 50.6651 168.7435 60° Northeast 544 626 37,000 1,739 Level FlightAware Transoceanic
Wed 11:29:09 AM 50.6333 168.7167 61° Northeast 540 621 39,000  Climbing Anchorage Center
Wed 11:30:00 AM 50.7431 168.9586 60° Northeast 544 626 37,000  Descending FlightAware Transoceanic
Wed 11:30:09 AM 50.6833 168.9000 67° East 540 621 39,000  Climbing Anchorage Center
Wed 11:31:00 AM 50.8206 169.1745 60° Northeast 544 626 37,000  Descending FlightAware Transoceanic
Wed 11:31:09 AM 50.7833 169.1167 54° Northeast 550 633 39,000  Climbing Anchorage Center
Wed 11:32:00 AM 50.8977 169.3912 61° Northeast 544 626 37,000  Descending FlightAware Transoceanic
Wed 11:32:09 AM 50.8333 169.3000 67° East 540 621 39,000 2,000 Climbing Anchorage Center
Wed 11:33:00 AM 50.9497 169.5241 61° Northeast 532 612 39,000  Level FlightAware Transoceanic
Wed 11:33:09 AM 50.9167 169.5167 59° Northeast 530 610 39,000  Level Anchorage Center
Wed 11:34:00 AM 51.0197 169.7252 61° Northeast 532 612 39,000  Level FlightAware Transoceanic
Wed 11:34:09 AM 51.0000 169.7500 60° Northeast 540 621 39,000  Level Anchorage Center
Wed 11:35:09 AM 51.0500 169.9167 64° Northeast 550 633 39,000  Level Anchorage Center
Wed 11:36:09 AM 51.1333 170.1500 60° Northeast 540 621 39,000  Level Anchorage Center
Wed 11:37:09 AM 51.2000 170.3167 57° Northeast 530 610 39,000  Level Anchorage Center
Wed 11:38:09 AM 51.2667 170.5500 65° Northeast 540 621 39,000  Level Anchorage Center
Wed 11:39:09 AM 51.3333 170.7333 60° Northeast 530 610 39,000  Level Anchorage Center
Wed 11:40:10 AM 51.4167 170.9500 58° Northeast 530 610 39,000  Level Anchorage Center
Wed 11:41:09 AM 51.4667 171.1333 66° East 520 598 39,000  Level Anchorage Center
Wed 11:42:10 AM 51.5000 171.3833 78° East 510 587 39,000  Level Anchorage Center
Wed 11:43:10 AM 51.5167 171.6333 84° East 520 598 39,000  Level Anchorage Center
Wed 11:44:10 AM 51.5333 171.8333 82° East 520 598 39,000  Level Anchorage Center
Wed 11:45:10 AM 51.5667 172.0833 78° East 510 587 39,000  Level Anchorage Center
Wed 11:46:10 AM 51.5667 172.2833 90° East 520 598 39,000  Level Anchorage Center
Wed 11:47:10 AM 51.6000 172.5167 77° East 510 587 39,000  Level Anchorage Center
Wed 11:48:10 AM 51.6167 172.7167 82° East 520 598 39,000  Level Anchorage Center
Wed 11:49:10 AM 51.6333 172.9833 84° East 520 598 39,000  Level Anchorage Center
Wed 11:50:11 AM 51.6500 173.2167 83° East 510 587 39,000  Level Anchorage Center
Wed 11:51:10 AM 51.6667 173.4167 82° East 520 598 39,000  Level Anchorage Center
Wed 11:52:11 AM 51.6833 173.6667 84° East 520 598 39,000  Level Anchorage Center
Wed 11:53:11 AM 51.7000 173.8667 82° East 510 587 39,000  Level Anchorage Center
Wed 11:54:11 AM 51.7167 174.1167 84° East 510 587 39,000  Level Anchorage Center
Wed 11:55:10 AM 51.7167 174.3167 90° East 510 587 39,000  Level Anchorage Center
Wed 11:56:11 AM 51.7333 174.5667 84° East 510 587 39,000  Level Anchorage Center
Wed 11:57:11 AM 51.7500 174.8167 84° East 510 587 39,000  Level Anchorage Center
Wed 11:58:11 AM 51.7667 175.0000 82° East 510 587 39,000  Level Anchorage Center
Wed 11:59:11 AM 51.7833 175.2500 84° East 510 587 39,000  Level Anchorage Center
Wed 12:00:11 PM 51.7833 175.4500 90° East 500 575 39,000  Level Anchorage Center
Wed 12:01:11 PM 51.8000 175.7000 84° East 510 587 39,000  Level Anchorage Center
Wed 12:02:11 PM 51.8167 175.9000 82° East 510 587 39,000  Level Anchorage Center
Wed 12:03:11 PM 51.8167 176.1500 90° East 500 575 39,000  Level Anchorage Center
Wed 12:04:11 PM 51.8333 176.4000 84° East 510 587 39,000  Level Anchorage Center
Wed 12:05:11 PM 51.8500 176.6000 82° East 510 587 39,000  Level Anchorage Center
Wed 12:06:11 PM 51.8500 176.8333 90° East 500 575 39,000  Level Anchorage Center
Wed 12:07:11 PM 51.8667 177.0333 82° East 510 587 39,000  Level Anchorage Center
Wed 12:08:11 PM 51.8667 177.2833 90° East 500 575 39,000  Level Anchorage Center
Wed 12:09:12 PM 51.8833 177.4833 82° East 490 564 39,000  Level Anchorage Center
Wed 12:10:11 PM 51.9000 177.7333 84° East 500 575 39,000  Level Anchorage Center
Wed 12:11:12 PM 51.9167 177.9667 83° East 500 575 39,000  Level Anchorage Center
Wed 12:12:12 PM 51.9333 178.1667 82° East 500 575 39,000  Level Anchorage Center
Wed 12:13:12 PM 51.9333 178.4167 90° East 490 564 39,000  Level Anchorage Center
Wed 12:14:12 PM 51.9500 178.6167 82° East 500 575 39,000  Level Anchorage Center
Wed 12:15:12 PM 51.9667 178.8667 84° East 500 575 39,000  Level Anchorage Center
Wed 12:16:12 PM 51.9667 179.0500 90° East 500 575 39,000  Level Anchorage Center
Wed 12:17:12 PM 51.9833 179.3000 84° East 500 575 39,000  Level Anchorage Center
Wed 12:18:12 PM 52.0000 179.5500 84° East 500 575 39,000  Level Anchorage Center
Wed 12:19:12 PM 52.0000 179.7500 90° East 500 575 39,000  Level Anchorage Center
Wed 12:20:12 PM 52.0167 179.9833 83° East 510 587 39,000  Level Anchorage Center
Wed 12:22:12 PM 52.0333 -179.5500 86° East 500 575 39,000  Level Anchorage Center
Wed 12:23:12 PM 52.0333 -179.3500 90° East 490 564 39,000  Level Anchorage Center
Wed 12:25:00 PM 52.0461 -178.9454 87° East  Level FlightAware Approximate
Wed 12:32:00 PM 52.0825 -177.3701 87° East  Level FlightAware Approximate
Wed 12:33:00 PM 52.0859 -177.1449 88° East  Level FlightAware Approximate
Wed 12:33:25 PM 52.1167 -177.0000 89° East 506 582 39,000  Level Anchorage Center
Wed 12:34:00 PM 52.0890 -176.9196 89° East  Level FlightAware Approximate
Wed 12:35:00 PM 52.0916 -176.6943 89° East  Level FlightAware Approximate
Wed 12:36:00 PM 52.0938 -176.4690 89° East  Level FlightAware Approximate
Wed 12:37:00 PM 52.0956 -176.2437 89° East  Level FlightAware Approximate
Wed 12:38:00 PM 52.0969 -176.0183 89° East  Level FlightAware Approximate
Wed 12:39:00 PM 52.1265 -175.6433 90° East 506 582 39,000  Level FlightAware Transoceanic
Wed 12:40:00 PM 52.1266 -175.4172 90° East 506 582 39,000  Level FlightAware Transoceanic
Wed 12:41:00 PM 52.1263 -175.1911 90° East 506 582 39,000  Level FlightAware Transoceanic
Wed 12:42:00 PM 52.1256 -174.9649 90° East 506 582 39,000  Level FlightAware Transoceanic
Wed 12:43:00 PM 52.1244 -174.7388 91° East 506 582 39,000  Level FlightAware Transoceanic
Wed 12:43:01 PM 52.1167 -174.8167 90° East 503 579 39,000  Level Anchorage Center
Wed 12:44:00 PM 52.1228 -174.5127 91° East 506 582 39,000  Level FlightAware Transoceanic
Wed 12:45:00 PM 52.1207 -174.2866 91° East 506 582 39,000  Level FlightAware Transoceanic
Wed 12:46:00 PM 52.1183 -174.0605 91° East 506 582 39,000  Level FlightAware Transoceanic
Wed 12:47:00 PM 52.1154 -173.8344 91° East 506 582 39,000  Level FlightAware Transoceanic
Wed 12:48:00 PM 52.1120 -173.6084 91° East 506 582 39,000  Level FlightAware Transoceanic
Wed 12:49:00 PM 52.1034 -173.4382 91° East 503 579 39,000  Level FlightAware Transoceanic
Wed 12:50:00 PM 52.0996 -173.2086 92° East 503 579 39,000  Level FlightAware Transoceanic
Wed 12:51:00 PM 52.0954 -172.9790 92° East 503 579 39,000  Level FlightAware Transoceanic
Wed 12:52:00 PM 52.0907 -172.7494 92° East 503 579 39,000  Level FlightAware Transoceanic
Wed 12:52:37 PM 52.1000 -172.6500 92° East 501 577 39,000  Level Anchorage Center
Wed 12:53:00 PM 52.0856 -172.5199 92° East 503 579 39,000  Level FlightAware Transoceanic
Wed 12:54:00 PM 52.0801 -172.2905 92° East 503 579 39,000  Level FlightAware Transoceanic
Wed 12:55:00 PM 52.0740 -172.0611 93° East 503 579 39,000  Level FlightAware Transoceanic
Wed 12:56:00 PM 52.0676 -171.8318 93° East 503 579 39,000  Level FlightAware Transoceanic
Wed 12:57:00 PM 52.0607 -171.6025 93° East 503 579 39,000 706 Level FlightAware Transoceanic
Wed 12:57:08 PM 52.0667 -171.6167 93° East 505 581 39,800  Climbing Anchorage Center
Wed 12:58:00 PM 52.0619 -171.4440 93° East 501 577 39,000 -429 Descending FlightAware Transoceanic
Wed 12:59:00 PM 52.0528 -171.2031 94° East 501 577 39,000  Level FlightAware Transoceanic
Wed 01:00:00 PM 52.0432 -170.9622 94° East 501 577 39,000  Level FlightAware Transoceanic
Wed 01:01:00 PM 52.0332 -170.7215 94° East 501 577 39,000  Level FlightAware Transoceanic
Wed 01:02:00 PM 52.0226 -170.4809 94° East 501 577 39,000 822 Level FlightAware Transoceanic
Wed 01:02:13 PM 52.0167 -170.4667 93° East 508 585 40,000 800 Climbing Anchorage Center
Wed 01:03:00 PM 52.0109 -170.2307 94° East 505 581 39,800 -112 Descending FlightAware Transoceanic
Wed 01:04:00 PM 52.0000 -170.0000 95° East 505 581 39,800  Level FlightAware Transoceanic
Wed 01:05:00 PM 51.9868 -169.7685 95° East 505 581 39,800 146 Level FlightAware Transoceanic
Wed 01:05:22 PM 52.0000 -170.0000 95° East 512 589 40,000  Climbing Anchorage Center
Wed 01:06:00 PM 51.9732 -169.5371 96° East 505 581 39,800 -122 Descending FlightAware Transoceanic
Wed 01:07:00 PM 51.9591 -169.3058 96° East 505 581 39,800 100 Level FlightAware Transoceanic
Wed 01:08:00 PM 51.9446 -169.0747 96° East 508 585 40,000 100 Climbing FlightAware Transoceanic
Wed 01:09:00 PM 51.9296 -168.8438 96° East 508 585 40,000  Level FlightAware Transoceanic
Wed 01:10:00 PM 51.9142 -168.6129 96° East 508 585 40,000  Level FlightAware Transoceanic
Wed 01:11:00 PM 51.9008 -168.4182 96° East 512 589 40,000  Level FlightAware Transoceanic
Wed 01:12:00 PM 51.8849 -168.1928 97° East 512 589 40,000  Level FlightAware Transoceanic
Wed 01:12:05 PM 51.8833 -168.2667 96° East 518 596 40,000  Level Anchorage Center
Wed 01:13:00 PM 51.8686 -167.9676 97° East 512 589 40,000  Level FlightAware Transoceanic
Wed 01:14:00 PM 51.8518 -167.7425 97° East 512 589 40,000  Level FlightAware Transoceanic
Wed 01:15:00 PM 51.8346 -167.5177 97° East 512 589 40,000  Level FlightAware Transoceanic
Wed 01:16:00 PM 51.8170 -167.2930 97° East 512 589 40,000  Level FlightAware Transoceanic
Wed 01:17:00 PM 51.7990 -167.0684 97° East 512 589 40,000  Level FlightAware Transoceanic
Wed 01:18:00 PM 51.7768 -166.8681 98° East 518 596 40,000  Level FlightAware Transoceanic
Wed 01:19:00 PM 51.7574 -166.6357 98° East 518 596 40,000  Level FlightAware Transoceanic
Wed 01:20:00 PM 51.7376 -166.4035 98° East 518 596 40,000  Level FlightAware Transoceanic
Wed 01:21:00 PM 51.7173 -166.1715 98° East 518 596 40,000  Level FlightAware Transoceanic
Wed 01:22:00 PM 51.6966 -165.9397 98° East 518 596 40,000  Level FlightAware Transoceanic
Wed 01:23:00 PM 51.6754 -165.7081 98° East 518 596 40,000  Level FlightAware Transoceanic
Wed 01:24:00 PM 51.6538 -165.4767 99° East 518 596 40,000  Level FlightAware Transoceanic
Wed 01:25:00 PM 51.6317 -165.2455 99° East 518 596 40,000  Level FlightAware Transoceanic
Wed 01:26:00 PM 51.6091 -165.0146 99° East 518 596 40,000  Level FlightAware Transoceanic
Wed 01:27:00 PM 51.5861 -164.7839 99° East 518 596 40,000  Level FlightAware Transoceanic
Wed 01:28:00 PM 51.5626 -164.5535 99° East 518 596 40,000  Level FlightAware Transoceanic
Wed 01:29:00 PM 51.5387 -164.3233 100° East 518 596 40,000  Level FlightAware Transoceanic
Wed 01:29:45 PM 51.5333 -164.2167 100° East 516 594 40,000  Level Oakland Oceanic (ODAPS)
Wed 01:30:00 PM 51.5144 -164.0933 100° East 518 596 40,000  Level FlightAware Transoceanic
Wed 01:31:00 PM 51.4896 -163.8636 100° East 518 596 40,000  Level FlightAware Transoceanic
Wed 01:32:00 PM 51.4643 -163.6341 100° East 518 596 40,000  Level FlightAware Transoceanic
Wed 01:33:00 PM 51.4386 -163.4049 100° East 518 596 40,000  Level FlightAware Transoceanic
Wed 01:34:00 PM 51.4124 -163.1759 100° East 518 596 40,000  Level FlightAware Transoceanic
Wed 01:35:00 PM 51.3858 -162.9472 101° East 518 596 40,000  Level FlightAware Transoceanic
Wed 01:36:00 PM 51.3724 -162.8004 101° East 516 594 40,000  Level FlightAware Transoceanic
Wed 01:37:00 PM 51.3439 -162.5653 101° East 516 594 40,000  Level FlightAware Transoceanic
Wed 01:38:00 PM 51.3150 -162.3306 101° East 516 594 40,000  Level FlightAware Transoceanic
Wed 01:39:00 PM 51.2856 -162.0961 101° East 516 594 40,000  Level FlightAware Transoceanic
Wed 01:40:00 PM 51.2557 -161.8619 102° East 516 594 40,000  Level FlightAware Transoceanic
Wed 01:41:00 PM 51.2254 -161.6281 102° East 516 594 40,000  Level FlightAware Transoceanic
Wed 01:42:00 PM 51.1946 -161.3945 102° East 516 594 40,000  Level FlightAware Transoceanic
Wed 01:43:00 PM 51.1633 -161.1613 102° East 516 594 40,000  Level FlightAware Transoceanic
Wed 01:43:37 PM 51.1500 -161.1167 102° East 513 590 40,000  Level Oakland Oceanic (ODAPS)
Wed 01:44:00 PM 51.1316 -160.9284 102° East 516 594 40,000  Level FlightAware Transoceanic
Wed 01:45:00 PM 51.0994 -160.6958 103° East 516 594 40,000  Level FlightAware Transoceanic
Wed 01:46:00 PM 51.0667 -160.4635 103° East 516 594 40,000  Level FlightAware Transoceanic
Wed 01:47:00 PM 51.0336 -160.2316 103° East 516 594 40,000  Level FlightAware Transoceanic
Wed 01:48:00 PM 51.0000 -160.0000 111° Southeast 516 594 40,000  Level FlightAware Transoceanic
Wed 01:48:52 PM 51.0000 -160.0000 111° Southeast 519 597 40,000  Level Oakland Oceanic (ODAPS)
Wed 01:49:00 PM 51.0000 -160.0000 111° Southeast 513 590 40,000  Level FlightAware Transoceanic
Wed 01:50:00 PM 50.9488 -159.7881 111° Southeast 513 590 40,000  Level FlightAware Transoceanic
Wed 01:51:00 PM 50.8971 -159.5767 111° Southeast 513 590 40,000  Level FlightAware Transoceanic
Wed 01:52:00 PM 50.8451 -159.3657 111° Southeast 513 590 40,000  Level FlightAware Transoceanic
Wed 01:53:00 PM 50.7927 -159.1553 112° Southeast 513 590 40,000  Level FlightAware Transoceanic
Wed 01:54:00 PM 50.7400 -158.9453 112° Southeast 513 590 40,000  Level FlightAware Transoceanic
Wed 01:55:00 PM 50.6803 -158.7101 112° Southeast 519 597 40,000  Level FlightAware Transoceanic
Wed 01:56:00 PM 50.6256 -158.4968 112° Southeast 519 597 40,000  Level FlightAware Transoceanic
Wed 01:57:00 PM 50.5706 -158.2841 112° Southeast 519 597 40,000  Level FlightAware Transoceanic
Wed 01:57:34 PM 50.5333 -158.1500 112° Southeast 516 594 40,000  Level Oakland Oceanic (ODAPS)
Wed 01:58:00 PM 50.5152 -158.0718 112° Southeast 519 597 40,000  Level FlightAware Transoceanic
Wed 01:59:00 PM 50.4593 -157.8600 113° Southeast 519 597 40,000  Level FlightAware Transoceanic
Wed 02:00:00 PM 50.4031 -157.6488 113° Southeast 519 597 40,000  Level FlightAware Transoceanic
Wed 02:01:00 PM 50.3466 -157.4380 113° Southeast 519 597 40,000  Level FlightAware Transoceanic
Wed 02:02:00 PM 50.2896 -157.2278 113° Southeast 519 597 40,000  Level FlightAware Transoceanic
Wed 02:03:00 PM 50.2073 -156.9347 113° Southeast 516 594 40,000  Level FlightAware Transoceanic
Wed 02:04:00 PM 50.1518 -156.7337 113° Southeast 516 594 40,000  Level FlightAware Transoceanic
Wed 02:05:00 PM 50.0959 -156.5333 114° Southeast 516 594 40,000  Level FlightAware Transoceanic
Wed 02:06:00 PM 50.0396 -156.3333 114° Southeast 516 594 40,000  Level FlightAware Transoceanic
Wed 02:07:00 PM 49.9830 -156.1337 114° Southeast 516 594 40,000  Level FlightAware Transoceanic
Wed 02:08:00 PM 49.9261 -155.9347 114° Southeast 516 594 40,000  Level FlightAware Transoceanic
Wed 02:09:00 PM 49.8688 -155.7361 114° Southeast 516 594 40,000  Level FlightAware Transoceanic
Wed 02:10:00 PM 49.8112 -155.5380 114° Southeast 516 594 40,000  Level FlightAware Transoceanic
Wed 02:11:00 PM 49.7533 -155.3404 114° Southeast 516 594 40,000  Level FlightAware Transoceanic
Wed 02:11:25 PM 49.7500 -155.3333 114° Southeast 511 588 40,000  Level Oakland Oceanic (ODAPS)
Wed 02:12:00 PM 49.6950 -155.1432 115° Southeast 516 594 40,000  Level FlightAware Transoceanic
Wed 02:13:00 PM 49.6364 -154.9465 115° Southeast 516 594 40,000  Level FlightAware Transoceanic
Wed 02:14:00 PM 49.5774 -154.7503 115° Southeast 516 594 40,000  Level FlightAware Transoceanic
Wed 02:15:00 PM 49.5181 -154.5546 115° Southeast 516 594 40,000  Level FlightAware Transoceanic
Wed 02:16:00 PM 49.4585 -154.3593 115° Southeast 516 594 40,000  Level FlightAware Transoceanic
Wed 02:17:00 PM 49.3960 -154.1591 115° Southeast 511 588 40,000  Level FlightAware Transoceanic
Wed 02:18:00 PM 49.3358 -153.9650 116° Southeast 511 588 40,000  Level FlightAware Transoceanic
Wed 02:19:00 PM 49.2753 -153.7715 116° Southeast 511 588 40,000  Level FlightAware Transoceanic
Wed 02:20:00 PM 49.2145 -153.5784 116° Southeast 511 588 40,000  Level FlightAware Transoceanic
Wed 02:21:00 PM 49.1534 -153.3857 116° Southeast 511 588 40,000  Level FlightAware Transoceanic
Wed 02:22:00 PM 49.0920 -153.1936 116° Southeast 511 588 40,000  Level FlightAware Transoceanic
Wed 02:23:00 PM 49.0302 -153.0019 116° Southeast 511 588 40,000  Level FlightAware Transoceanic
Wed 02:24:00 PM 48.9681 -152.8107 116° Southeast 511 588 40,000  Level FlightAware Transoceanic
Wed 02:25:00 PM 48.9057 -152.6200 117° Southeast 511 588 40,000  Level FlightAware Transoceanic
Wed 02:25:17 PM 48.9167 -152.6500 117° Southeast 508 585 40,000  Level Oakland Oceanic (ODAPS)
Wed 02:26:00 PM 48.8430 -152.4297 117° Southeast 511 588 40,000  Level FlightAware Transoceanic
Wed 02:27:00 PM 48.7800 -152.2400 117° Southeast 511 588 40,000  Level FlightAware Transoceanic
Wed 02:28:00 PM 48.7167 -152.0507 117° Southeast 511 588 40,000  Level FlightAware Transoceanic
Wed 02:29:00 PM 48.6531 -151.8619 117° Southeast 511 588 40,000  Level FlightAware Transoceanic
Wed 02:30:00 PM 48.5891 -151.6735 117° Southeast 511 588 40,000  Level FlightAware Transoceanic
Wed 02:31:00 PM 48.5313 -151.5026 117° Southeast 508 585 40,000  Level FlightAware Transoceanic
Wed 02:32:00 PM 48.4659 -151.3130 118° Southeast 508 585 40,000  Level FlightAware Transoceanic
Wed 02:33:00 PM 48.4003 -151.1240 118° Southeast 508 585 40,000  Level FlightAware Transoceanic
Wed 02:34:00 PM 48.3343 -150.9354 118° Southeast 508 585 40,000  Level FlightAware Transoceanic
Wed 02:35:00 PM 48.2681 -150.7474 118° Southeast 508 585 40,000  Level FlightAware Transoceanic
Wed 02:36:00 PM 48.2015 -150.5598 118° Southeast 508 585 40,000  Level FlightAware Transoceanic
Wed 02:37:00 PM 48.1347 -150.3727 118° Southeast 508 585 40,000  Level FlightAware Transoceanic
Wed 02:38:00 PM 48.0675 -150.1861 118° Southeast 508 585 40,000  Level FlightAware Transoceanic
Wed 02:39:00 PM 48.0000 -150.0000 110° East 508 585 40,000  Level FlightAware Transoceanic
Wed 02:39:11 PM 48.0000 -150.0167 90° East 514 592 40,000  Level Oakland Oceanic (ODAPS)
Wed 02:39:21 PM 48.0000 -150.0000 110° East 517 595 40,000  Level Oakland Oceanic (ODAPS)
Wed 02:40:00 PM 47.9517 -149.8012 110° East 508 585 40,000  Level FlightAware Transoceanic
Wed 02:41:00 PM 47.9031 -149.6028 110° East 508 585 40,000  Level FlightAware Transoceanic
Wed 02:42:00 PM 47.8542 -149.4048 110° East 508 585 40,000  Level FlightAware Transoceanic
Wed 02:43:00 PM 47.8049 -149.2072 110° East 508 585 40,000  Level FlightAware Transoceanic
Wed 02:44:00 PM 47.7553 -149.0099 111° Southeast 508 585 40,000  Level FlightAware Transoceanic
Wed 02:45:00 PM 47.6996 -148.7904 111° Southeast 517 595 40,000  Level FlightAware Transoceanic
Wed 02:46:00 PM 47.6483 -148.5901 111° Southeast 517 595 40,000  Level FlightAware Transoceanic
Wed 02:47:00 PM 47.5966 -148.3903 111° Southeast 517 595 40,000  Level FlightAware Transoceanic
Wed 02:48:00 PM 47.5446 -148.1908 111° Southeast 517 595 40,000  Level FlightAware Transoceanic
Wed 02:49:00 PM 47.4923 -147.9918 111° Southeast 517 595 40,000  Level FlightAware Transoceanic
Wed 02:50:00 PM 47.4396 -147.7931 111° Southeast 517 595 40,000  Level FlightAware Transoceanic
Wed 02:51:00 PM 47.3866 -147.5949 112° Southeast 517 595 40,000  Level FlightAware Transoceanic
Wed 02:52:00 PM 47.3332 -147.3970 112° Southeast 517 595 40,000  Level FlightAware Transoceanic
Wed 02:53:00 PM 47.2795 -147.1996 112° Southeast 517 595 40,000  Level FlightAware Transoceanic
Wed 02:53:02 PM 47.3000 -147.2833 112° Southeast 515 593 40,000  Level Oakland Oceanic (ODAPS)
Wed 02:54:00 PM 47.2254 -147.0025 112° Southeast 517 595 40,000  Level FlightAware Transoceanic
Wed 02:55:00 PM 47.1711 -146.8058 112° Southeast 517 595 40,000  Level FlightAware Transoceanic
Wed 02:56:00 PM 47.1163 -146.6096 112° Southeast 517 595 40,000  Level FlightAware Transoceanic
Wed 02:57:00 PM 47.0613 -146.4138 113° Southeast 517 595 40,000  Level FlightAware Transoceanic
Wed 02:58:00 PM 47.0059 -146.2183 113° Southeast 517 595 40,000  Level FlightAware Transoceanic
Wed 02:59:00 PM 46.9768 -146.1234 113° Southeast 515 593 40,000  Level FlightAware Transoceanic
Wed 03:00:00 PM 46.9218 -145.9314 113° Southeast 515 593 40,000  Level FlightAware Transoceanic
Wed 03:01:00 PM 46.8665 -145.7398 113° Southeast 515 593 40,000  Level FlightAware Transoceanic
Wed 03:02:00 PM 46.8109 -145.5487 113° Southeast 515 593 40,000  Level FlightAware Transoceanic
Wed 03:03:00 PM 46.7550 -145.3579 113° Southeast 515 593 40,000  Level FlightAware Transoceanic
Wed 03:04:00 PM 46.6987 -145.1675 113° Southeast 515 593 40,000  Level FlightAware Transoceanic
Wed 03:05:00 PM 46.6421 -144.9776 114° Southeast 515 593 40,000  Level FlightAware Transoceanic
Wed 03:06:00 PM 46.5852 -144.7880 114° Southeast 515 593 40,000  Level FlightAware Transoceanic
Wed 03:06:53 PM 46.5333 -144.6000 114° Southeast 519 597 40,000  Level Oakland Oceanic (ODAPS)
Wed 03:07:00 PM 46.5280 -144.5988 114° Southeast 515 593 40,000  Level FlightAware Transoceanic
Wed 03:08:00 PM 46.4705 -144.4100 114° Southeast 515 593 40,000  Level FlightAware Transoceanic
Wed 03:09:00 PM 46.4127 -144.2216 114° Southeast 515 593 40,000  Level FlightAware Transoceanic
Wed 03:10:00 PM 46.3545 -144.0337 114° Southeast 515 593 40,000  Level FlightAware Transoceanic
Wed 03:11:00 PM 46.2961 -143.8461 114° Southeast 515 593 40,000  Level FlightAware Transoceanic
Wed 03:12:00 PM 46.2373 -143.6589 114° Southeast 515 593 40,000  Level FlightAware Transoceanic
Wed 03:13:00 PM 46.1675 -143.4263 115° Southeast 519 597 40,000  Level FlightAware Transoceanic
Wed 03:14:00 PM 46.1053 -143.2322 115° Southeast 519 597 40,000  Level FlightAware Transoceanic
Wed 03:15:00 PM 46.0429 -143.0386 115° Southeast 519 597 40,000  Level FlightAware Transoceanic
Wed 03:16:00 PM 45.9801 -142.8454 115° Southeast 519 597 40,000  Level FlightAware Transoceanic
Wed 03:17:00 PM 45.9170 -142.6526 115° Southeast 519 597 40,000  Level FlightAware Transoceanic
Wed 03:18:00 PM 45.8535 -142.4603 115° Southeast 519 597 40,000  Level FlightAware Transoceanic
Wed 03:19:00 PM 45.7897 -142.2684 116° Southeast 519 597 40,000  Level FlightAware Transoceanic
Wed 03:20:00 PM 45.7257 -142.0769 116° Southeast 519 597 40,000  Level FlightAware Transoceanic
Wed 03:20:45 PM 45.7000 -142.0000 116° Southeast 520 598 40,000  Level Oakland Oceanic (ODAPS)
Wed 03:21:00 PM 45.6613 -141.8859 116° Southeast 519 597 40,000  Level FlightAware Transoceanic
Wed 03:22:00 PM 45.5965 -141.6953 116° Southeast 519 597 40,000  Level FlightAware Transoceanic
Wed 03:23:00 PM 45.5315 -141.5052 116° Southeast 519 597 40,000  Level FlightAware Transoceanic
Wed 03:24:00 PM 45.4661 -141.3155 116° Southeast 519 597 40,000  Level FlightAware Transoceanic
Wed 03:25:00 PM 45.4005 -141.1263 116° Southeast 519 597 40,000  Level FlightAware Transoceanic
Wed 03:26:00 PM 45.3345 -140.9375 117° Southeast 519 597 40,000  Level FlightAware Transoceanic
Wed 03:27:00 PM 45.2842 -140.7941 117° Southeast 520 598 40,000  Level FlightAware Transoceanic
Wed 03:28:00 PM 45.2136 -140.5948 117° Southeast 520 598 40,000  Level FlightAware Transoceanic
Wed 03:29:00 PM 45.1428 -140.3960 117° Southeast 520 598 40,000  Level FlightAware Transoceanic
Wed 03:30:00 PM 45.0716 -140.1978 117° Southeast 520 598 40,000  Level FlightAware Transoceanic
Wed 03:31:00 PM 45.0000 -140.0000 109° East 520 598 40,000  Level FlightAware Transoceanic
Wed 03:31:46 PM 45.0000 -140.0000 109° East 506 582 40,000  Level Oakland Oceanic (ODAPS)
Wed 03:32:00 PM 44.9543 -139.8128 109° East 520 598 40,000  Level FlightAware Transoceanic
Wed 03:33:00 PM 44.9084 -139.6260 109° East 520 598 40,000  Level FlightAware Transoceanic
Wed 03:34:00 PM 44.8621 -139.4394 109° East 520 598 40,000  Level FlightAware Transoceanic
Wed 03:34:38 PM 44.8667 -139.4500 109° East 513 590 40,000  Level Oakland Oceanic (ODAPS)
Wed 03:35:00 PM 44.8155 -139.2532 109° East 520 598 40,000  Level FlightAware Transoceanic
Wed 03:36:00 PM 44.7686 -139.0672 110° East 520 598 40,000  Level FlightAware Transoceanic
Wed 03:37:00 PM 44.7214 -138.8816 110° East 520 598 40,000  Level FlightAware Transoceanic
Wed 03:38:00 PM 44.7162 -138.8613 110° East 506 582 40,000  Level FlightAware Transoceanic
Wed 03:39:00 PM 44.6678 -138.6726 110° East 506 582 40,000  Level FlightAware Transoceanic
Wed 03:40:00 PM 44.5822 -138.3357 110° East 513 590 40,000  Level FlightAware Transoceanic
Wed 03:41:00 PM 44.5337 -138.1510 110° East 513 590 40,000  Level FlightAware Transoceanic
Wed 03:42:00 PM 44.4850 -137.9667 110° East 513 590 40,000  Level FlightAware Transoceanic
Wed 03:43:00 PM 44.4359 -137.7827 111° Southeast 513 590 40,000  Level FlightAware Transoceanic
Wed 03:44:00 PM 44.3866 -137.5989 111° Southeast 513 590 40,000  Level FlightAware Transoceanic
Wed 03:45:00 PM 44.3369 -137.4155 111° Southeast 513 590 40,000  Level FlightAware Transoceanic
Wed 03:46:00 PM 44.2870 -137.2324 111° Southeast 513 590 40,000  Level FlightAware Transoceanic
Wed 03:47:00 PM 44.2368 -137.0496 111° Southeast 513 590 40,000  Level FlightAware Transoceanic
Wed 03:48:00 PM 44.1863 -136.8671 111° Southeast 513 590 40,000  Level FlightAware Transoceanic
Wed 03:48:29 PM 44.1833 -136.8500 111° Southeast 506 582 40,000  Level Oakland Oceanic (ODAPS)
Wed 03:49:00 PM 44.1355 -136.6850 111° Southeast 513 590 40,000  Level FlightAware Transoceanic
Wed 03:50:00 PM 44.0844 -136.5031 111° Southeast 513 590 40,000  Level FlightAware Transoceanic
Wed 03:51:00 PM 44.0330 -136.3216 112° Southeast 513 590 40,000  Level FlightAware Transoceanic
Wed 03:52:00 PM 43.9813 -136.1404 112° Southeast 513 590 40,000  Level FlightAware Transoceanic
Wed 03:53:00 PM 43.9294 -135.9595 112° Southeast 513 590 40,000  Level FlightAware Transoceanic
Wed 03:54:00 PM 43.8745 -135.7645 112° Southeast 506 582 40,000  Level FlightAware Transoceanic
Wed 03:55:00 PM 43.8220 -135.5847 112° Southeast 506 582 40,000  Level FlightAware Transoceanic
Wed 03:56:00 PM 43.7693 -135.4052 112° Southeast 506 582 40,000  Level FlightAware Transoceanic
Wed 03:57:00 PM 43.7162 -135.2260 112° Southeast 506 582 40,000  Level FlightAware Transoceanic
Wed 03:58:00 PM 43.6629 -135.0471 112° Southeast 506 582 40,000  Level FlightAware Transoceanic
Wed 03:59:00 PM 43.6093 -134.8686 113° Southeast 506 582 40,000  Level FlightAware Transoceanic
Wed 04:00:00 PM 43.5555 -134.6904 113° Southeast 506 582 40,000  Level FlightAware Transoceanic
Wed 04:01:00 PM 43.5013 -134.5125 113° Southeast 506 582 40,000  Level FlightAware Transoceanic
Wed 04:02:00 PM 43.4469 -134.3349 113° Southeast 506 582 40,000  Level FlightAware Transoceanic
Wed 04:02:22 PM 43.4667 -134.3833 113° Southeast 501 577 40,000  Level Oakland Oceanic (ODAPS)
Wed 04:03:00 PM 43.3922 -134.1576 113° Southeast 506 582 40,000  Level FlightAware Transoceanic
Wed 04:04:00 PM 43.3373 -133.9807 113° Southeast 506 582 40,000  Level FlightAware Transoceanic
Wed 04:05:00 PM 43.2820 -133.8040 113° Southeast 506 582 40,000  Level FlightAware Transoceanic
Wed 04:06:00 PM 43.2265 -133.6277 113° Southeast 506 582 40,000  Level FlightAware Transoceanic
Wed 04:07:00 PM 43.1707 -133.4517 114° Southeast 506 582 40,000  Level FlightAware Transoceanic
Wed 04:08:00 PM 43.1432 -133.3534 114° Southeast 501 577 40,000  Level FlightAware Transoceanic
Wed 04:09:00 PM 43.0884 -133.1828 114° Southeast 501 577 40,000  Level FlightAware Transoceanic
Wed 04:10:00 PM 43.0333 -133.0125 114° Southeast 501 577 40,000  Level FlightAware Transoceanic
Wed 04:11:00 PM 42.9780 -132.8426 114° Southeast 501 577 40,000  Level FlightAware Transoceanic
Wed 04:12:00 PM 42.9224 -132.6729 114° Southeast 501 577 40,000  Level FlightAware Transoceanic
Wed 04:13:00 PM 42.8666 -132.5035 114° Southeast 501 577 40,000  Level FlightAware Transoceanic
Wed 04:14:00 PM 42.8105 -132.3345 114° Southeast 501 577 40,000  Level FlightAware Transoceanic
Wed 04:15:00 PM 42.7542 -132.1657 115° Southeast 501 577 40,000  Level FlightAware Transoceanic
Wed 04:16:00 PM 42.6977 -131.9973 115° Southeast 501 577 40,000  Level FlightAware Transoceanic
Wed 04:16:13 PM 42.6833 -131.9667 115° Southeast 504 580 40,000  Level Oakland Oceanic (ODAPS)
Wed 04:17:00 PM 42.6409 -131.8292 115° Southeast 501 577 40,000  Level FlightAware Transoceanic
Wed 04:18:00 PM 42.5838 -131.6613 115° Southeast 501 577 40,000  Level FlightAware Transoceanic
Wed 04:19:00 PM 42.5265 -131.4938 115° Southeast 501 577 40,000  Level FlightAware Transoceanic
Wed 04:20:00 PM 42.4690 -131.3266 115° Southeast 501 577 40,000  Level FlightAware Transoceanic
Wed 04:21:00 PM 42.4112 -131.1597 115° Southeast 501 577 40,000  Level FlightAware Transoceanic
Wed 04:22:00 PM 42.3459 -130.9780 115° Southeast 504 580 40,000  Level FlightAware Transoceanic
Wed 04:23:00 PM 42.2888 -130.8143 115° Southeast 504 580 40,000  Level FlightAware Transoceanic
Wed 04:24:00 PM 42.2315 -130.6508 115° Southeast 504 580 40,000  Level FlightAware Transoceanic
Wed 04:25:00 PM 42.1740 -130.4877 116° Southeast 504 580 40,000  Level FlightAware Transoceanic
Wed 04:26:00 PM 42.1162 -130.3248 116° Southeast 504 580 40,000  Level FlightAware Transoceanic
Wed 04:27:00 PM 42.0582 -130.1623 116° Southeast 504 580 40,000  Level FlightAware Transoceanic
Wed 04:28:00 PM 42.0000 -130.0000 120° Southeast 504 580 40,000  Level FlightAware Transoceanic
Wed 04:28:03 PM 42.0000 -130.0000 120° Southeast 487 560 40,000  Level Oakland Oceanic (ODAPS)
Wed 04:29:00 PM 41.9300 -129.8389 120° Southeast 504 580 40,000  Level FlightAware Transoceanic
Wed 04:30:00 PM 41.8599 -129.6783 120° Southeast 504 580 40,000  Level FlightAware Transoceanic
Wed 04:30:06 PM 41.8500 -129.6667 120° Southeast 489 563 40,000  Level Oakland Oceanic (ODAPS)
Wed 04:31:00 PM 41.7894 -129.5179 121° Southeast 504 580 40,000  Level FlightAware Transoceanic
Wed 04:32:00 PM 41.7188 -129.3579 121° Southeast 504 580 40,000  Level FlightAware Transoceanic
Wed 04:33:00 PM 41.6480 -129.1983 121° Southeast 504 580 40,000  Level FlightAware Transoceanic
Wed 04:34:00 PM 41.5769 -129.0390 121° Southeast 487 560 40,000  Level FlightAware Transoceanic
Wed 04:35:00 PM 41.5056 -128.8801 121° Southeast 487 560 40,000  Level FlightAware Transoceanic
Wed 04:36:00 PM 41.4276 -128.7141 121° Southeast 489 563 40,000  Level FlightAware Transoceanic
Wed 04:37:00 PM 41.3565 -128.5566 121° Southeast 489 563 40,000  Level FlightAware Transoceanic
Wed 04:38:00 PM 41.2851 -128.3994 121° Southeast 489 563 40,000  Level FlightAware Transoceanic
Wed 04:39:00 PM 41.2135 -128.2425 121° Southeast 489 563 40,000  Level FlightAware Transoceanic
Wed 04:40:00 PM 41.1418 -128.0860 121° Southeast 489 563 40,000  Level FlightAware Transoceanic
Wed 04:41:00 PM 41.0697 -127.9298 122° Southeast 489 563 40,000  Level FlightAware Transoceanic
Wed 04:42:00 PM 40.9975 -127.7740 122° Southeast 489 563 40,000  Level FlightAware Transoceanic
Wed 04:43:00 PM 40.9251 -127.6185 122° Southeast 489 563 40,000 536 Level FlightAware Transoceanic
Wed 04:43:52 PM 40.8833 -127.5500 121° Southeast 488 562 41,000  Climbing Oakland Oceanic (ODAPS)
Wed 04:44:00 PM 40.8525 -127.4634 122° Southeast 489 563 40,000 -128 Descending FlightAware Transoceanic
Wed 04:44:39 PM 40.8231 -127.4531 118° Southeast 485 558 40,900  Climbing Oakland Center
Wed 04:45:00 PM 40.7796 -127.3086 122° Southeast 489 563 40,000  Descending FlightAware Transoceanic
Wed 04:45:41 PM 40.7506 -127.3031 123° Southeast 485 558 40,900  Climbing Oakland Center
Wed 04:46:00 PM 40.7066 -127.1541 122° Southeast 489 563 40,000 98 Descending FlightAware Transoceanic
Wed 04:46:42 PM 40.6797 -127.1542 122° Southeast 484 557 41,000  Climbing Oakland Center
Wed 04:47:00 PM 40.6333 -127.0000 118° Southeast 489 563 40,000  Descending FlightAware Transoceanic
Wed 04:47:44 PM 40.6086 -127.0081 123° Southeast 481 554 41,000  Climbing Oakland Center
Wed 04:48:00 PM 40.5723 -126.8474 118° Southeast 489 563 40,000 -98 Descending FlightAware Transoceanic
Wed 04:48:45 PM 40.5475 -126.8539 118° Southeast 480 552 40,900  Climbing Oakland Center
Wed 04:49:00 PM 40.5111 -126.6950 118° Southeast 489 563 40,000 80 Descending FlightAware Transoceanic
Wed 04:50:00 PM 40.4497 -126.5429 118° Southeast 488 562 41,000 171 Climbing FlightAware Transoceanic
Wed 04:54:51 PM 40.0430 -126.0160 118° Southeast 468 539 41,000  Level FlightAware ADS-B
Wed 04:55:21 PM 39.9990 -125.9520 132° Southeast 468 539 41,000  Level FlightAware ADS-B
Wed 04:56:01 PM 39.9440 -125.8690 131° Southeast 468 539 41,000  Level FlightAware ADS-B
Wed 04:56:49 PM 39.8810 -125.7730 131° Southeast 468 539 41,000  Level FlightAware ADS-B
Wed 04:57:21 PM 39.8300 -125.7000 132° Southeast 473 544 41,000  Level FlightAware ADS-B
Wed 04:58:01 PM 39.7650 -125.6050 132° Southeast 473 544 41,000  Level FlightAware ADS-B
Wed 04:58:31 PM 39.7260 -125.5460 131° Southeast 475 547 41,000  Level FlightAware ADS-B
Wed 04:59:06 PM 39.6710 -125.4660 132° Southeast 475 547 41,000  Level FlightAware ADS-B
Wed 04:59:42 PM 39.6200 -125.3910 131° Southeast 483 556 41,000  Level FlightAware ADS-B
Wed 05:00:17 PM 39.5650 -125.3110 132° Southeast 483 556 41,000  Level FlightAware ADS-B
Wed 05:00:52 PM 39.5150 -125.2370 131° Southeast 483 556 41,000  Level FlightAware ADS-B
Wed 05:01:27 PM 39.4620 -125.1600 132° Southeast 484 557 41,000  Level FlightAware ADS-B
Wed 05:02:02 PM 39.4110 -125.0860 132° Southeast 473 544 41,000  Level FlightAware ADS-B
Wed 05:02:37 PM 39.3600 -125.0120 132° Southeast 471 542 41,000  Level FlightAware ADS-B
Wed 05:03:30 PM 39.2890 -124.9060 131° Southeast 470 541 41,000  Level FlightAware ADS-B
Wed 05:04:11 PM 39.2200 -124.8100 133° Southeast 473 544 41,000  Level FlightAware ADS-B
Wed 05:04:45 PM 39.1710 -124.7390 132° Southeast 473 544 41,000  Level FlightAware ADS-B
Wed 05:05:20 PM 39.1220 -124.6690 132° Southeast 473 544 41,000  Level FlightAware ADS-B
Wed 05:05:55 PM 39.0680 -124.5910 132° Southeast 474 545 41,000  Level FlightAware ADS-B
Wed 05:06:31 PM 39.0170 -124.5190 132° Southeast 476 548 41,000  Level FlightAware ADS-B
Wed 05:07:03 PM 38.9680 -124.4500 132° Southeast 475 547 41,000  Level FlightAware ADS-B
Wed 05:07:41 PM 38.9120 -124.3710 132° Southeast 475 547 41,000  Level FlightAware ADS-B
Wed 05:08:17 PM 38.8590 -124.2950 132° Southeast 477 549 41,000  Level FlightAware ADS-B
Wed 05:08:53 PM 38.8060 -124.2200 132° Southeast 477 549 41,000  Level FlightAware ADS-B
Wed 05:09:25 PM 38.7600 -124.1550 132° Southeast 475 547 41,000  Level FlightAware ADS-B
Wed 05:09:59 PM 38.7080 -124.0830 133° Southeast 471 542 41,000  Level FlightAware ADS-B
Wed 05:10:33 PM 38.6590 -124.0140 132° Southeast 467 537 41,000  Level FlightAware ADS-B
Wed 05:11:13 PM 38.6010 -123.9320 132° Southeast 467 537 41,000  Level FlightAware ADS-B
Wed 05:11:45 PM 38.5540 -123.8670 133° Southeast 465 535 41,000  Level FlightAware ADS-B
Wed 05:12:22 PM 38.5020 -123.7930 132° Southeast 461 531 41,000  Level FlightAware ADS-B
Wed 05:12:55 PM 38.4550 -123.7260 132° Southeast 460 529 41,000  Level FlightAware ADS-B
Wed 05:13:31 PM 38.4030 -123.6520 132° Southeast 459 528 41,000  Level FlightAware ADS-B
Wed 05:14:03 PM 38.3580 -123.5880 132° Southeast 460 529 41,000  Level FlightAware ADS-B
Wed 05:14:41 PM 38.3020 -123.5110 133° Southeast 464 534 41,000  Level FlightAware ADS-B
Wed 05:15:13 PM 38.2600 -123.4510 132° Southeast 466 536 41,000  Level FlightAware ADS-B
Wed 05:15:51 PM 38.2020 -123.3700 132° Southeast 467 537 41,000  Level FlightAware ADS-B
Wed 05:16:25 PM 38.1520 -123.3000 132° Southeast 470 541 41,000  Level FlightAware ADS-B
Wed 05:17:01 PM 38.1000 -123.2270 132° Southeast 470 541 41,000  Level FlightAware ADS-B
Wed 05:17:33 PM 38.0520 -123.1610 133° Southeast 470 541 41,000  Level FlightAware ADS-B
Wed 05:18:11 PM 38.0000 -123.0880 132° Southeast 472 543 41,000  Level FlightAware ADS-B
Wed 05:18:47 PM 37.9440 -123.0110 133° Southeast 472 543 41,000  Level FlightAware ADS-B
Wed 05:19:23 PM 37.8940 -122.9420 133° Southeast 472 543 41,000  Level FlightAware ADS-B
Wed 05:19:55 PM 37.8470 -122.8760 132° Southeast 472 543 41,000  Level FlightAware ADS-B
Wed 05:20:31 PM 37.7910 -122.8000 133° Southeast 472 543 41,000  Level FlightAware ADS-B
Wed 05:21:05 PM 37.7440 -122.7350 132° Southeast 473 544 41,000  Level FlightAware ADS-B
Wed 05:21:37 PM 37.6930 -122.6650 133° Southeast 474 545 41,000  Level FlightAware ADS-B
Wed 05:22:15 PM 37.6380 -122.5900 133° Southeast 472 543 41,000  Level FlightAware ADS-B
Wed 05:22:53 PM 37.5800 -122.5110 133° Southeast 474 545 41,000  Level FlightAware ADS-B
Wed 05:23:19 PM 37.5402 -122.4570 133° Southeast 476 548 41,000  Level FlightAware ADS-B
Wed 05:23:50 PM 37.4940 -122.3940 133° Southeast 475 547 41,000  Level FlightAware ADS-B
Wed 05:24:30 PM 37.4351 -122.3140 133° Southeast 477 549 41,000  Level FlightAware ADS-B
Wed 05:25:05 PM 37.3860 -122.2470 133° Southeast 476 548 41,000  Level FlightAware ADS-B
Wed 05:25:23 PM 37.3555 -122.2060 133° Southeast 475 547 41,000  Level FlightAware ADS-B
Wed 05:26:02 PM 37.2966 -122.1270 133° Southeast 475 547 41,000  Level FlightAware ADS-B
Wed 05:26:34 PM 37.2489 -122.0630 133° Southeast 475 547 41,000  Level FlightAware ADS-B
Wed 05:27:14 PM 37.1892 -121.9830 133° Southeast 476 548 41,000  Level FlightAware ADS-B
Wed 05:27:45 PM 37.1418 -121.9190 133° Southeast 479 551 41,000  Level FlightAware ADS-B
Wed 05:28:16 PM 37.0961 -121.8580 133° Southeast 480 552 41,000  Level FlightAware ADS-B
Wed 05:28:46 PM 37.0502 -121.7970 133° Southeast 480 552 41,000  Level FlightAware ADS-B
Wed 05:29:18 PM 37.0016 -121.7320 133° Southeast 480 552 41,000  Level FlightAware ADS-B
Wed 05:29:49 PM 36.9543 -121.6690 133° Southeast 480 552 41,000  Level FlightAware ADS-B
Wed 05:30:19 PM 36.9110 -121.6120 134° Southeast 479 551 41,000  Level FlightAware ADS-B
Wed 05:30:35 PM 36.8841 -121.5760 133° Southeast 480 552 41,000  Level FlightAware ADS-B
Wed 05:31:22 PM 36.8132 -121.4830 134° Southeast 479 551 41,000  Level FlightAware ADS-B
Wed 05:31:52 PM 36.7649 -121.4230 135° Southeast 478 550 41,000  Level FlightAware ADS-B
Wed 05:32:26 PM 36.7113 -121.3600 137° Southeast 477 549 41,000  Level FlightAware ADS-B
Wed 05:33:01 PM 36.6564 -121.2940 136° Southeast 477 549 41,000  Level FlightAware ADS-B
Wed 05:33:31 PM 36.6081 -121.2350 136° Southeast 475 547 41,000  Level FlightAware ADS-B
Wed 05:34:03 PM 36.5575 -121.1740 136° Southeast 475 547 41,000  Level FlightAware ADS-B
Wed 05:34:59 PM 36.4730 -121.0720 136° Southeast 473 544 41,000  Level FlightAware ADS-B
Wed 05:35:35 PM 36.4160 -121.0040 136° Southeast 474 545 41,000  Level FlightAware ADS-B
Wed 05:36:09 PM 36.3610 -120.9380 136° Southeast 474 545 41,000  Level FlightAware ADS-B
Wed 05:36:45 PM 36.3030 -120.8690 136° Southeast 475 547 41,000  Level FlightAware ADS-B
Wed 05:37:21 PM 36.2490 -120.8040 136° Southeast 476 548 41,000  Level FlightAware ADS-B
Wed 05:37:53 PM 36.2000 -120.7450 136° Southeast 476 548 41,000  Level FlightAware ADS-B
Wed 05:38:29 PM 36.1410 -120.6760 137° Southeast 477 549 41,000  Level FlightAware ADS-B
Wed 05:39:05 PM 36.0830 -120.6070 136° Southeast 479 551 41,000  Level FlightAware ADS-B
Wed 05:39:38 PM 36.0320 -120.5460 136° Southeast 482 555 41,000  Level FlightAware ADS-B
Wed 05:40:15 PM 35.9690 -120.4720 136° Southeast 483 556 41,000  Level FlightAware ADS-B
Wed 05:40:47 PM 35.9160 -120.4090 136° Southeast 482 555 41,000  Level FlightAware ADS-B
Wed 05:41:24 PM 35.8650 -120.3490 136° Southeast 482 555 41,000  Level FlightAware ADS-B
Wed 05:41:59 PM 35.8000 -120.2730 137° Southeast 485 558 41,000  Level FlightAware ADS-B
Wed 05:42:40 PM 35.7440 -120.2060 136° Southeast 485 558 41,000  Level FlightAware ADS-B
Wed 05:43:16 PM 35.6940 -120.1470 136° Southeast 485 558 41,000  Level FlightAware ADS-B
Wed 05:43:40 PM 35.6610 -120.1080 136° Southeast 485 558 41,000  Level FlightAware ADS-B
Wed 05:44:20 PM 35.5800 -120.0150 137° Southeast 476 548 41,000  Level FlightAware ADS-B
Wed 05:44:57 PM 35.5300 -119.9560 136° Southeast 476 548 41,000  Level FlightAware ADS-B
Wed 05:45:31 PM 35.4840 -119.9020 136° Southeast 476 548 41,000  Level FlightAware ADS-B
Wed 05:46:07 PM 35.4360 -119.8450 136° Southeast 476 548 41,000  Level FlightAware ADS-B
Wed 05:46:43 PM 35.3870 -119.7870 136° Southeast 476 548 41,000  Level FlightAware ADS-B
Wed 05:47:20 PM 35.3380 -119.7280 136° Southeast 476 548 41,000 -2,870 Level FlightAware ADS-B
Wed 05:47:52 PM 35.2300 -119.6200 141° Southeast 459 528 37,700 -4,629 Descending FlightAware ADS-B
Wed 05:48:30 PM 35.1610 -119.5610 145° Southeast 469 540 35,600 -3,123 Descending FlightAware ADS-B
Wed 05:49:05 PM 35.1000 -119.5080 145° Southeast 473 544 33,900 -2,000 Descending FlightAware ADS-B
Wed 05:49:57 PM 35.0160 -119.4360 145° Southeast 476 548 32,700 -818 Descending FlightAware ADS-B
Wed 05:50:33 PM 34.9610 -119.3890 145° Southeast 476 548 32,700  Level FlightAware ADS-B
Wed 05:51:09 PM 34.9050 -119.3420 145° Southeast 476 548 32,700  Level FlightAware ADS-B
Wed 05:51:45 PM 34.8500 -119.2950 145° Southeast 476 548 32,700  Level FlightAware ADS-B
Wed 05:52:22 PM 34.7930 -119.2470 145° Southeast 476 548 32,700  Level FlightAware ADS-B
Wed 05:52:58 PM 34.7380 -119.2000 145° Southeast 476 548 32,700  Level FlightAware ADS-B
Wed 05:53:34 PM 34.6830 -119.1530 145° Southeast 476 548 32,700 -7,981 Level FlightAware ADS-B
Wed 05:54:13 PM 34.5680 -119.0580 146° Southeast 19,800 -12,086 Descending FlightAware ADS-B
Wed 05:54:44 PM 34.5150 -119.0130 145° Southeast 406 467 18,600 -1,043 Descending FlightAware ADS-B
Wed 05:55:22 PM 34.4650 -118.9710 145° Southeast 406 467 18,600 -2,206 Level FlightAware ADS-B
Wed 05:57:00 PM 34.3090 -118.8640 150° Southeast 374 430 13,600 -2,409 Descending FlightAware ADS-B
Wed 05:57:34 PM 34.2570 -118.8450 163° South 374 430 13,300 -1,151 Descending FlightAware ADS-B
Wed 05:58:13 PM 34.1910 -118.8210 163° South 529 609 12,200 -1,059 Descending FlightAware ADS-B
Wed 05:59:33 PM 34.0830 -118.7810 163° South 324 373 11,200 -757 Descending FlightAware ADS-B
Wed 06:00:04 PM 34.0450 -118.7520 148° Southeast 291 335 10,800 -771 Descending FlightAware ADS-B
Wed 06:00:43 PM 34.0320 -118.6930 105° East 299 344 10,300 -811 Descending FlightAware ADS-B
Wed 06:01:18 PM 34.0270 -118.6390 96° East 298 343 9,800 -943 Descending FlightAware ADS-B
Wed 06:01:53 PM 34.0220 -118.5780 96° East 293 337 9,200 -1,000 Descending FlightAware ADS-B
Wed 06:02:18 PM 34.0180 -118.5400 97° East 291 335 8,800 -1,067 Descending FlightAware ADS-B
Wed 06:02:38 PM 34.0150 -118.5030 96° East 287 330 8,400 -1,029 Descending FlightAware ADS-B
Wed 06:02:53 PM 34.0130 -118.4800 96° East 285 328 8,200 -857 Descending FlightAware ADS-B
Wed 06:03:06 PM 34.0120 -118.4580 93° East 287 330 8,000 -909 Descending FlightAware ADS-B
Wed 06:03:26 PM 34.0150 -118.4270 83° East 288 331 7,700 -857 Descending FlightAware ADS-B
Wed 06:03:48 PM 34.0200 -118.3920 80° East 282 325 7,400 -857 Descending FlightAware ADS-B
Wed 06:04:08 PM 34.0240 -118.3630 81° East 265 305 7,100 -533 Descending FlightAware ADS-B
Wed 06:04:33 PM 34.0290 -118.3290 80° East 224 258 7,000 -300 Descending FlightAware ADS-B
Wed 06:04:48 PM 34.0320 -118.3130 77° East 210 242 6,900 -1,029 Descending FlightAware ADS-B
Wed 06:05:08 PM 34.0350 -118.2900 81° East 204 235 6,400 -1,080 Descending FlightAware ADS-B
Wed 06:05:38 PM 34.0400 -118.2560 80° East 204 235 6,000 -720 Descending FlightAware ADS-B
Wed 06:05:58 PM 34.0430 -118.2370 79° East 205 236 5,800 -960 Descending FlightAware ADS-B
Wed 06:06:28 PM 34.0360 -118.2110 108° East 192 221 5,200 -1,050 Descending FlightAware ADS-B
Wed 06:06:38 PM 34.0230 -118.2040 156° South 191 220 5,100 -800 Descending FlightAware ADS-B
Wed 06:06:43 PM 34.0170 -118.2040 180° South 191 220 5,000 -1,200 Descending FlightAware ADS-B
Wed 06:07:13 PM 33.9960 -118.2200 212° Southwest 188 216 4,400 -1,100 Descending FlightAware ADS-B
Wed 06:07:43 PM 33.9840 -118.2410 235° Southwest 170 196 3,900 -1,500 Descending FlightAware ADS-B
Wed 06:08:13 PM 33.9700 -118.2650 235° Southwest 163 188 2,900 -2,057 Descending FlightAware ADS-B
Wed 06:08:18 PM 33.9670 -118.2710 239° Southwest 167 192 2,700 -1,600 Descending FlightAware ADS-B
Wed 06:08:28 PM 33.9650 -118.2780 251° West 166 191 2,500 -1,600 Descending FlightAware ADS-B
Wed 06:08:33 PM 33.9640 -118.2850 260° West 159 183 2,300 -1,350 Descending FlightAware ADS-B
Wed 06:09:08 PM 33.9610 -118.3120 262° West 145 167 1,600 -1,091 Descending FlightAware ADS-B
Wed 06:09:28 PM 33.9600 -118.3290 266° West 142 163 1,300 -720 Descending FlightAware ADS-B
Wed 06:09:58 PM 33.9570 -118.3510 261° West 132 152 1,000 -577 Descending FlightAware ADS-B
Wed 06:10:20 PM 33.9560 -118.3670 266° West 128 147 800 -714 Descending FlightAware ADS-B
Wed 06:10:40 PM 33.9540 -118.3810 260° West 125 144 500 -492 Descending FlightAware ADS-B
Wed 06:11:21 PM 33.9510 -118.4080 262° West 127 146 300 -293 Descending FlightAware ADS-B

Login

Don't have an account? Register now (free) for customized features, flight alerts, and more!